Time;durP1;ratioP1;P1;durP2;ratioP2;P2;SDS_P1;SDS_P2;PMS_P1;PMS_P2;Temp;Humidity;BMP_temperature;BMP_pressure;BME280_temperature;BME280_humidity;BME280_pressure;Samples;Min_cycle;Max_cycle;Signal;HPM_P1;HPM_P2
2021/11/13 00:00:29;;;;;;;66.70;31.60;;;;;;;5.37;82.10;100407.17;103007;1312;22607;-62
2021/11/13 00:03:17;;;;;;;68.90;29.20;;;;;;;5.33;82.15;100409.64;102678;1314;24164;-61
2021/11/13 00:05:49;;;;;;;70.80;31.00;;;;;;;5.30;82.11;100413.84;102873;1310;22512;-63
2021/11/13 00:08:20;;;;;;;79.60;32.80;;;;;;;5.27;82.20;100410.29;102630;1311;25811;-63
2021/11/13 00:10:51;;;;;;;190.30;86.80;;;;;;;5.26;82.27;100405.89;102699;1310;24032;-64
2021/11/13 00:13:24;;;;;;;303.70;147.70;;;;;;;5.25;82.17;100402.79;102695;1314;25279;-62
2021/11/13 00:15:56;;;;;;;112.60;50.70;;;;;;;5.21;82.17;100400.98;102965;1312;22578;-64
2021/11/13 00:18:27;;;;;;;82.50;36.40;;;;;;;5.17;82.07;100404.34;103052;1311;25351;-61
2021/11/13 00:20:58;;;;;;;78.20;30.90;;;;;;;5.14;82.18;100404.20;102659;1316;22593;-62
2021/11/13 00:23:29;;;;;;;73.50;31.10;;;;;;;5.10;82.13;100403.27;102772;1315;26495;-64
2021/11/13 00:26:01;;;;;;;82.80;33.40;;;;;;;5.08;82.32;100401.35;102755;1310;22759;-62
2021/11/13 00:28:32;;;;;;;76.00;32.80;;;;;;;5.06;82.38;100395.23;102725;1314;24292;-62
2021/11/13 00:31:03;;;;;;;81.10;33.00;;;;;;;5.04;82.38;100394.75;102738;1318;22593;-63
2021/11/13 00:33:34;;;;;;;75.40;34.20;;;;;;;5.02;82.57;100390.87;102781;1317;22716;-63
2021/11/13 00:36:06;;;;;;;84.10;36.80;;;;;;;4.99;82.56;100393.64;102913;1316;22606;-62
2021/11/13 00:38:37;;;;;;;85.40;36.10;;;;;;;4.98;82.65;100383.30;102933;1312;22640;-62
2021/11/13 00:41:07;;;;;;;83.70;37.00;;;;;;;4.97;82.66;100387.09;102941;1312;24337;-62
2021/11/13 00:43:38;;;;;;;89.00;35.90;;;;;;;4.94;82.72;100383.64;102784;1311;22577;-62
2021/11/13 00:46:09;;;;;;;87.20;39.50;;;;;;;4.91;82.81;100378.96;102811;1312;24337;-62
2021/11/13 00:48:40;;;;;;;93.00;40.00;;;;;;;4.92;82.87;100377.06;102950;1318;25579;-62
2021/11/13 00:51:11;;;;;;;90.80;40.30;;;;;;;4.91;82.87;100384.61;102851;1311;23117;-63
2021/11/13 00:53:42;;;;;;;93.80;41.00;;;;;;;4.89;82.90;100384.96;102773;1314;24268;-63
2021/11/13 00:56:13;;;;;;;92.10;43.60;;;;;;;4.88;83.00;100381.83;102694;1313;22580;-62
2021/11/13 00:58:44;;;;;;;101.60;46.60;;;;;;;4.87;83.06;100383.98;102756;1312;23009;-62
2021/11/13 01:01:15;;;;;;;110.10;46.30;;;;;;;4.86;83.04;100385.34;102745;1312;25248;-62
2021/11/13 01:03:46;;;;;;;103.70;46.40;;;;;;;4.86;83.11;100384.35;102738;1317;23331;-62
2021/11/13 01:06:17;;;;;;;106.20;46.90;;;;;;;4.86;83.13;100384.25;102771;1312;24245;-62
2021/11/13 01:08:49;;;;;;;91.20;41.40;;;;;;;4.85;83.15;100386.49;102881;1316;25089;-62
2021/11/13 01:11:20;;;;;;;108.20;48.70;;;;;;;4.84;83.16;100383.30;102990;1312;24291;-61
2021/11/13 01:13:51;;;;;;;105.50;48.40;;;;;;;4.83;83.18;100377.87;102830;1313;22643;-61
2021/11/13 01:16:21;;;;;;;103.50;46.60;;;;;;;4.83;83.18;100377.62;102727;1311;22644;-62
2021/11/13 01:18:53;;;;;;;107.00;47.40;;;;;;;4.82;83.25;100373.01;102663;1318;22717;-62
2021/11/13 01:21:25;;;;;;;107.70;46.10;;;;;;;4.78;83.29;100378.53;102878;1317;22643;-62
2021/11/13 01:23:58;;;;;;;106.90;47.00;;;;;;;4.76;83.27;100371.55;102819;1311;22580;-62
2021/11/13 01:26:29;;;;;;;109.80;48.30;;;;;;;4.73;83.37;100368.70;102800;1317;24269;-62
2021/11/13 01:29:00;;;;;;;107.20;47.50;;;;;;;4.72;83.49;100367.17;102581;1317;425044;-62
2021/11/13 01:31:32;;;;;;;105.70;47.80;;;;;;;4.71;83.47;100365.85;102760;1311;22557;-61
2021/11/13 01:34:03;;;;;;;117.50;50.90;;;;;;;4.72;83.44;100360.69;102784;1318;22802;-64
2021/11/13 01:36:33;;;;;;;106.20;49.30;;;;;;;4.71;83.47;100354.94;102752;1318;22608;-63
2021/11/13 01:39:05;;;;;;;109.10;49.10;;;;;;;4.71;83.46;100345.41;102799;1316;22710;-62
2021/11/13 01:41:36;;;;;;;118.70;51.90;;;;;;;4.70;83.47;100344.80;102765;1316;22582;-63
2021/11/13 01:44:09;;;;;;;112.50;50.60;;;;;;;4.68;83.44;100346.41;102751;1312;22590;-64
2021/11/13 01:46:41;;;;;;;108.00;48.10;;;;;;;4.65;83.52;100341.29;103026;1311;22721;-62
2021/11/13 01:49:14;;;;;;;111.70;50.00;;;;;;;4.62;83.51;100340.91;102833;1309;22577;-61
2021/11/13 01:51:49;;;;;;;115.10;51.80;;;;;;;4.59;83.56;100337.44;102915;1312;22644;-62
2021/11/13 01:54:21;;;;;;;114.90;52.10;;;;;;;4.58;83.52;100338.07;102773;1317;25358;-62
2021/11/13 01:56:52;;;;;;;103.40;49.70;;;;;;;4.57;83.52;100334.00;102808;1318;22619;-62
2021/11/13 01:59:24;;;;;;;112.50;49.60;;;;;;;4.56;83.54;100331.73;102775;1316;23257;-62
2021/11/13 02:01:55;;;;;;;115.00;48.30;;;;;;;4.54;83.56;100327.68;102812;1317;22601;-63
2021/11/13 02:04:26;;;;;;;111.40;52.20;;;;;;;4.52;83.52;100326.64;102710;1316;24034;-63
2021/11/13 02:06:57;;;;;;;119.80;52.90;;;;;;;4.51;83.46;100327.94;102729;1318;22640;-62
2021/11/13 02:09:28;;;;;;;110.60;49.90;;;;;;;4.50;83.42;100324.57;102737;1316;25295;-62
2021/11/13 02:11:59;;;;;;;116.50;51.90;;;;;;;4.46;83.48;100323.80;102823;1312;22566;-61
2021/11/13 02:14:31;;;;;;;117.60;52.20;;;;;;;4.44;83.56;100325.28;102763;1315;25442;-61
2021/11/13 02:17:02;;;;;;;121.30;53.30;;;;;;;4.43;83.57;100322.71;102707;1316;22755;-61
2021/11/13 02:19:33;;;;;;;115.90;51.40;;;;;;;4.42;83.50;100319.02;102883;1311;22568;-62
2021/11/13 02:22:04;;;;;;;118.90;51.80;;;;;;;4.41;83.47;100319.50;102712;1318;22680;-62
2021/11/13 02:24:36;;;;;;;113.30;50.30;;;;;;;4.40;83.44;100312.89;102801;1316;22590;-63
2021/11/13 02:27:07;;;;;;;116.80;50.50;;;;;;;4.38;83.46;100315.80;102839;1314;24257;-63
2021/11/13 02:29:39;;;;;;;107.30;49.90;;;;;;;4.37;83.47;100316.39;102968;1311;22580;-64
2021/11/13 02:32:11;;;;;;;118.80;51.50;;;;;;;4.35;83.45;100315.41;102730;1316;22552;-63
2021/11/13 02:34:42;;;;;;;112.00;50.00;;;;;;;4.33;83.51;100309.38;102843;1316;22573;-64
2021/11/13 02:37:13;;;;;;;109.20;48.50;;;;;;;4.31;83.54;100310.77;102687;1316;22564;-62
2021/11/13 02:39:46;;;;;;;108.20;50.30;;;;;;;4.27;83.53;100303.55;102758;1318;24446;-63
2021/11/13 02:42:21;;;;;;;113.00;53.00;;;;;;;4.24;83.67;100302.20;102779;1313;24239;-63
2021/11/13 02:44:53;;;;;;;119.70;52.90;;;;;;;4.21;83.71;100303.07;102745;1317;22593;-62
2021/11/13 02:47:25;;;;;;;126.10;54.40;;;;;;;4.18;83.75;100299.03;102819;1309;24338;-63
2021/11/13 02:49:56;;;;;;;123.60;53.30;;;;;;;4.16;83.78;100297.67;102776;1314;22593;-63
2021/11/13 02:52:29;;;;;;;118.60;55.10;;;;;;;4.14;83.82;100302.08;102713;1315;22581;-62
2021/11/13 02:55:00;;;;;;;120.40;52.00;;;;;;;4.12;83.93;100299.29;102711;1317;22593;-61
2021/11/13 02:57:31;;;;;;;125.60;54.20;;;;;;;4.10;84.00;100297.27;102766;1316;25446;-62
2021/11/13 03:00:06;;;;;;;121.40;52.60;;;;;;;4.09;84.07;100296.09;102762;1317;22647;-62
2021/11/13 03:02:38;;;;;;;127.20;54.80;;;;;;;4.08;84.18;100295.41;103099;1318;24529;-63
2021/11/13 03:05:21;;;;;;;121.30;52.90;;;;;;;4.08;84.13;100295.26;102875;1316;22589;-62
2021/11/13 03:07:53;;;;;;;120.40;53.10;;;;;;;4.07;84.23;100293.63;102892;1316;26416;-63
2021/11/13 03:10:26;;;;;;;132.50;56.10;;;;;;;4.08;84.20;100295.02;102782;1317;23022;-62
2021/11/13 03:12:58;;;;;;;111.50;50.10;;;;;;;4.07;84.24;100292.60;102862;1315;25429;-63
2021/11/13 03:15:29;;;;;;;118.60;54.10;;;;;;;4.08;84.19;100296.53;102707;1316;22722;-62
2021/11/13 03:18:01;;;;;;;132.80;54.40;;;;;;;4.08;84.23;100296.37;102671;1316;23010;-62
2021/11/13 03:20:32;;;;;;;123.80;52.70;;;;;;;4.06;84.30;100296.90;103060;1313;22862;-62
2021/11/13 03:23:04;;;;;;;117.50;52.60;;;;;;;4.04;84.29;100299.93;102770;1316;22622;-63
2021/11/13 03:25:37;;;;;;;120.30;53.10;;;;;;;4.04;84.31;100300.34;102769;1318;22581;-63
2021/11/13 03:28:13;;;;;;;109.40;48.30;;;;;;;4.03;84.36;100300.54;102743;1317;22747;-62
2021/11/13 03:30:44;;;;;;;113.80;49.80;;;;;;;4.02;84.33;100302.43;102734;1318;23862;-62
2021/11/13 03:33:15;;;;;;;112.80;47.90;;;;;;;4.02;84.47;100303.55;102836;1312;22648;-62
2021/11/13 03:35:46;;;;;;;125.50;54.60;;;;;;;4.01;84.55;100302.85;102854;1317;23155;-62
2021/11/13 03:38:19;;;;;;;117.70;51.40;;;;;;;4.03;84.56;100296.73;102962;1316;23036;-62
2021/11/13 03:40:51;;;;;;;125.10;52.70;;;;;;;4.04;84.60;100292.52;102915;1318;22586;-64
2021/11/13 03:43:22;;;;;;;120.80;52.60;;;;;;;4.06;84.62;100292.56;102824;1318;24339;-63
2021/11/13 03:45:54;;;;;;;117.10;50.90;;;;;;;4.06;84.58;100292.23;102832;1317;22980;-62
2021/11/13 03:48:26;;;;;;;119.40;53.10;;;;;;;4.08;84.67;100289.65;102782;1318;22682;-62
2021/11/13 03:50:57;;;;;;;115.60;50.70;;;;;;;4.09;84.67;100291.14;102769;1316;22684;-62
2021/11/13 03:53:29;;;;;;;109.60;48.60;;;;;;;4.10;84.76;100292.70;102728;1317;22585;-62
2021/11/13 03:56:00;;;;;;;130.20;51.50;;;;;;;4.07;84.87;100293.79;102804;1316;22685;-62
2021/11/13 03:58:32;;;;;;;131.50;53.10;;;;;;;4.08;84.85;100292.74;102733;1311;22644;-62
2021/11/13 04:01:03;;;;;;;123.50;54.80;;;;;;;4.09;84.81;100291.14;102713;1317;22590;-64
2021/11/13 04:03:36;;;;;;;117.50;50.20;;;;;;;4.09;84.91;100287.80;102870;1314;24436;-62
2021/11/13 04:06:07;;;;;;;106.90;47.90;;;;;;;4.08;84.96;100292.02;102795;1316;24239;-61
2021/11/13 04:08:38;;;;;;;115.40;47.90;;;;;;;4.07;84.95;100282.81;102803;1316;22577;-63
2021/11/13 04:11:10;;;;;;;122.50;50.60;;;;;;;4.06;84.97;100283.94;102776;1316;23029;-63
2021/11/13 04:13:41;;;;;;;114.80;51.90;;;;;;;4.06;84.85;100280.64;102820;1318;22603;-63
2021/11/13 04:16:12;;;;;;;120.20;54.40;;;;;;;4.05;84.94;100280.59;102754;1317;22576;-62
2021/11/13 04:18:43;;;;;;;118.20;50.40;;;;;;;4.05;85.02;100281.60;102891;1318;24238;-64
2021/11/13 04:21:14;;;;;;;117.00;50.60;;;;;;;4.05;84.98;100285.71;102739;1316;24239;-62
2021/11/13 04:23:45;;;;;;;120.00;52.20;;;;;;;4.04;84.89;100280.77;102786;1317;24329;-63
2021/11/13 04:26:16;;;;;;;126.00;52.20;;;;;;;4.05;84.89;100279.88;102907;1316;22669;-61
2021/11/13 04:28:47;;;;;;;129.70;55.60;;;;;;;4.06;84.79;100281.59;102794;1316;22581;-62
2021/11/13 04:31:18;;;;;;;121.00;52.10;;;;;;;4.05;84.81;100286.04;102817;1316;25344;-62
2021/11/13 04:33:51;;;;;;;119.00;51.00;;;;;;;4.04;84.74;100287.15;102761;1318;22720;-63
2021/11/13 04:36:24;;;;;;;117.70;52.10;;;;;;;4.04;84.80;100288.58;103006;1316;22644;-62
2021/11/13 04:38:55;;;;;;;121.50;53.20;;;;;;;4.02;84.92;100288.29;102844;1316;22567;-62
2021/11/13 04:41:26;;;;;;;130.00;59.70;;;;;;;4.03;84.87;100284.66;102732;1317;25713;-63
2021/11/13 04:43:57;;;;;;;129.90;57.40;;;;;;;4.02;84.83;100283.72;102633;1317;23145;-62
2021/11/13 04:46:27;;;;;;;128.40;59.00;;;;;;;4.02;84.81;100279.31;102827;1318;25363;-63
2021/11/13 04:48:58;;;;;;;143.00;64.00;;;;;;;4.00;84.77;100281.72;102702;1318;24240;-64
2021/11/13 04:51:30;;;;;;;126.20;58.60;;;;;;;3.99;84.68;100279.55;102990;1313;24240;-62
2021/11/13 04:54:01;;;;;;;139.40;59.40;;;;;;;3.96;84.69;100280.81;102799;1313;22727;-62
2021/11/13 04:56:31;;;;;;;128.80;58.70;;;;;;;3.96;84.76;100282.40;102781;1316;22851;-63
2021/11/13 04:59:02;;;;;;;136.70;60.00;;;;;;;3.96;84.74;100287.04;102741;1313;25375;-62
2021/11/13 05:01:33;;;;;;;135.00;62.80;;;;;;;3.94;84.64;100285.75;102744;1317;22869;-62
2021/11/13 05:04:04;;;;;;;151.50;64.00;;;;;;;3.92;84.55;100288.96;102831;1317;22555;-62
2021/11/13 05:06:35;;;;;;;133.90;59.50;;;;;;;3.91;84.66;100295.60;102806;1318;22555;-62
2021/11/13 05:09:06;;;;;;;124.60;53.60;;;;;;;3.91;84.61;100293.17;102831;1312;24326;-62
2021/11/13 05:11:37;;;;;;;117.30;53.00;;;;;;;3.91;84.64;100292.16;102763;1316;22587;-64
2021/11/13 05:14:08;;;;;;;120.40;51.20;;;;;;;3.90;84.61;100291.60;102734;1316;22563;-62
2021/11/13 05:16:39;;;;;;;122.50;50.20;;;;;;;3.91;84.61;100283.48;102842;1317;24199;-63
2021/11/13 05:19:10;;;;;;;112.80;50.20;;;;;;;3.90;84.58;100290.35;102704;1313;22637;-63
2021/11/13 05:21:41;;;;;;;129.40;56.10;;;;;;;3.90;84.45;100289.25;103047;1318;25341;-62
2021/11/13 05:24:11;;;;;;;131.00;58.70;;;;;;;3.91;84.48;100289.24;102738;1313;22564;-63
2021/11/13 05:26:42;;;;;;;130.90;58.40;;;;;;;3.91;84.52;100292.60;102706;1316;25542;-63
2021/11/13 05:29:13;;;;;;;127.80;56.50;;;;;;;3.91;84.45;100294.36;102802;1313;25459;-62
2021/11/13 05:31:44;;;;;;;140.40;59.20;;;;;;;3.89;84.49;100292.66;102728;1316;24243;-63
2021/11/13 05:34:15;;;;;;;129.50;54.90;;;;;;;3.88;84.45;100287.48;102678;1317;25426;-62
2021/11/13 05:36:46;;;;;;;124.50;54.40;;;;;;;3.86;84.48;100293.30;102662;1313;22646;-63
2021/11/13 05:39:16;;;;;;;120.10;52.80;;;;;;;3.84;84.51;100299.89;102855;1315;22686;-62
2021/11/13 05:41:47;;;;;;;118.40;55.40;;;;;;;3.83;84.45;100300.88;102706;1311;23505;-63
2021/11/13 05:44:18;;;;;;;125.70;55.00;;;;;;;3.83;84.53;100302.84;102708;1312;22579;-64
2021/11/13 05:46:53;;;;;;;132.40;57.40;;;;;;;3.82;84.56;100309.64;102671;1311;22609;-61
2021/11/13 05:49:24;;;;;;;119.70;56.20;;;;;;;3.83;84.52;100312.63;102622;1318;24226;-62
2021/11/13 05:51:55;;;;;;;130.30;54.50;;;;;;;3.82;84.51;100314.70;102914;1317;24295;-62
2021/11/13 05:54:27;;;;;;;120.90;55.30;;;;;;;3.81;84.54;100312.66;102737;1314;25284;-63
2021/11/13 05:56:58;;;;;;;133.00;53.70;;;;;;;3.83;84.59;100318.70;102726;1317;25455;-63
2021/11/13 05:59:29;;;;;;;123.10;54.80;;;;;;;3.83;84.57;100321.29;102805;1313;22564;-62
2021/11/13 06:02:00;;;;;;;125.00;53.70;;;;;;;3.84;84.62;100316.39;103084;1317;25539;-62
2021/11/13 06:04:31;;;;;;;123.90;53.40;;;;;;;3.84;84.59;100321.52;102772;1311;22561;-63
2021/11/13 06:07:02;;;;;;;119.50;51.70;;;;;;;3.84;84.58;100319.69;102707;1318;22577;-64
2021/11/13 06:09:33;;;;;;;111.10;49.70;;;;;;;3.84;84.50;100321.89;102699;1317;22614;-63
2021/11/13 06:12:05;;;;;;;120.90;53.70;;;;;;;3.85;84.55;100322.05;102821;1313;22567;-61
2021/11/13 06:14:35;;;;;;;123.50;52.00;;;;;;;3.85;84.53;100324.55;102889;1312;22563;-64
2021/11/13 06:17:07;;;;;;;123.80;53.10;;;;;;;3.85;84.55;100325.82;102833;1314;25373;-62
2021/11/13 06:19:38;;;;;;;126.10;53.50;;;;;;;3.86;84.55;100328.80;102689;1312;22566;-62
2021/11/13 06:22:09;;;;;;;115.30;48.50;;;;;;;3.87;84.60;100335.23;102759;1317;22643;-63
2021/11/13 06:24:40;;;;;;;120.20;49.60;;;;;;;3.87;84.62;100338.48;102732;1318;25340;-63
2021/11/13 06:27:14;;;;;;;118.80;50.50;;;;;;;3.88;84.61;100339.64;102864;1311;24340;-64
2021/11/13 06:29:46;;;;;;;121.20;50.00;;;;;;;3.88;84.61;100343.42;102832;1312;22577;-62
2021/11/13 06:32:17;;;;;;;117.30;50.50;;;;;;;3.89;84.60;100342.48;103095;1315;22563;-63
2021/11/13 06:34:48;;;;;;;122.40;51.10;;;;;;;3.88;84.64;100344.54;102954;1311;24337;-63
2021/11/13 06:37:19;;;;;;;129.40;55.30;;;;;;;3.88;84.72;100342.48;102724;1317;25722;-63
2021/11/13 06:39:50;;;;;;;121.00;53.20;;;;;;;3.89;84.86;100339.75;102657;1317;22603;-62
2021/11/13 06:42:22;;;;;;;117.50;52.10;;;;;;;3.90;84.83;100344.80;102826;1314;22577;-63
2021/11/13 06:44:53;;;;;;;120.20;51.00;;;;;;;3.91;84.95;100349.67;102688;1311;25373;-62
2021/11/13 06:47:24;;;;;;;129.70;54.20;;;;;;;3.92;85.04;100349.50;102652;1317;22628;-63
2021/11/13 06:49:56;;;;;;;130.60;53.80;;;;;;;3.92;85.12;100348.79;102784;1313;25342;-63
2021/11/13 06:52:27;;;;;;;136.70;57.90;;;;;;;3.92;85.15;100348.39;102722;1316;22560;-62
2021/11/13 06:54:58;;;;;;;127.50;57.70;;;;;;;3.93;85.25;100354.11;102685;1318;22709;-63
2021/11/13 06:57:28;;;;;;;133.00;58.40;;;;;;;3.95;85.46;100355.41;102643;1314;22603;-62
2021/11/13 07:00:00;;;;;;;134.30;56.10;;;;;;;3.97;85.59;100357.71;102717;1310;22606;-60
2021/11/13 07:02:30;;;;;;;134.60;59.20;;;;;;;3.99;85.71;100364.15;102648;1312;22603;-62
2021/11/13 07:05:03;;;;;;;127.80;53.60;;;;;;;4.03;85.77;100366.35;102756;1312;25389;-62
2021/11/13 07:07:33;;;;;;;124.80;51.40;;;;;;;4.07;85.92;100366.16;102724;1312;25474;-62
2021/11/13 07:10:08;;;;;;;132.70;53.50;;;;;;;4.10;86.03;100365.14;102785;1318;22808;-62
2021/11/13 07:12:40;;;;;;;121.20;53.00;;;;;;;4.15;85.99;100366.69;102685;1319;22603;-61
2021/11/13 07:15:13;;;;;;;123.90;52.70;;;;;;;4.19;86.09;100368.16;102803;1311;22640;-63
2021/11/13 07:17:45;;;;;;;117.20;51.40;;;;;;;4.25;86.07;100365.90;103051;1310;25362;-63
2021/11/13 07:20:17;;;;;;;128.40;55.00;;;;;;;4.29;86.15;100366.40;102749;1311;25575;-63
2021/11/13 07:22:47;;;;;;;125.40;54.90;;;;;;;4.35;86.15;100366.10;103027;1309;25271;-62
2021/11/13 07:25:18;;;;;;;133.30;53.70;;;;;;;4.40;86.19;100369.29;102692;1312;25436;-63
2021/11/13 07:27:49;;;;;;;125.40;53.40;;;;;;;4.45;86.22;100371.69;102676;1316;25342;-63
2021/11/13 07:30:24;;;;;;;106.60;45.30;;;;;;;4.51;86.17;100364.52;102907;1311;26606;-63
2021/11/13 07:32:55;;;;;;;109.40;49.70;;;;;;;4.55;86.11;100362.16;102717;1310;22645;-63
2021/11/13 07:35:26;;;;;;;111.20;48.20;;;;;;;4.61;86.15;100364.54;102646;1310;22593;-63
2021/11/13 07:37:57;;;;;;;108.30;47.00;;;;;;;4.68;86.23;100364.19;102741;1312;24320;-62
2021/11/13 07:40:28;;;;;;;108.00;46.90;;;;;;;4.74;86.13;100365.48;102758;1317;22577;-62
2021/11/13 07:43:00;;;;;;;111.70;45.20;;;;;;;4.79;86.02;100363.11;102783;1318;26859;-64
2021/11/13 07:45:32;;;;;;;104.60;45.60;;;;;;;4.83;85.95;100365.46;103002;1311;22585;-62
2021/11/13 07:48:05;;;;;;;105.80;44.10;;;;;;;4.88;85.94;100365.08;102902;1311;22636;-61
2021/11/13 07:50:38;;;;;;;114.30;49.50;;;;;;;4.93;86.03;100367.55;102898;1311;23077;-62
2021/11/13 07:53:10;;;;;;;114.20;47.50;;;;;;;4.99;86.05;100369.05;102851;1312;22599;-63
2021/11/13 07:55:42;;;;;;;107.10;47.00;;;;;;;5.04;86.05;100366.92;102718;1313;22719;-62
2021/11/13 07:58:16;;;;;;;108.00;48.00;;;;;;;5.10;85.96;100368.42;102741;1311;24265;-62
2021/11/13 08:00:48;;;;;;;106.90;46.10;;;;;;;5.15;86.06;100370.31;102644;1318;22620;-62
2021/11/13 08:03:20;;;;;;;153.50;56.60;;;;;;;5.20;85.91;100369.15;102821;1312;22587;-62
2021/11/13 08:05:51;;;;;;;206.90;60.30;;;;;;;5.24;85.87;100362.06;102767;1315;27765;-62
2021/11/13 08:08:22;;;;;;;206.20;64.60;;;;;;;5.30;85.75;100362.30;102751;1315;23134;-62
2021/11/13 08:10:53;;;;;;;136.60;51.20;;;;;;;5.34;85.64;100366.29;102983;1312;23910;-63
2021/11/13 08:13:24;;;;;;;111.70;48.90;;;;;;;5.38;85.53;100361.25;103014;1317;23135;-64
2021/11/13 08:15:55;;;;;;;104.90;44.30;;;;;;;5.42;85.40;100358.15;102735;1317;24440;-64
2021/11/13 08:18:26;;;;;;;117.80;46.30;;;;;;;5.45;85.30;100355.89;102821;1311;22600;-61
2021/11/13 08:20:59;;;;;;;116.40;47.80;;;;;;;5.49;85.32;100353.63;103073;1312;22648;-63
2021/11/13 08:23:31;;;;;;;103.30;41.50;;;;;;;5.53;85.32;100350.30;102859;1311;24259;-64
2021/11/13 08:26:04;;;;;;;101.70;44.00;;;;;;;5.57;85.32;100345.02;102857;1311;22675;-62
2021/11/13 08:28:35;;;;;;;107.90;47.60;;;;;;;5.60;85.29;100342.38;103055;1312;25417;-63
2021/11/13 08:31:07;;;;;;;150.60;53.10;;;;;;;5.63;85.19;100345.70;102835;1311;22606;-64
2021/11/13 08:33:38;;;;;;;190.30;58.90;;;;;;;5.67;85.20;100348.59;102897;1311;22699;-62
2021/11/13 08:36:10;;;;;;;166.30;51.00;;;;;;;5.71;85.17;100345.52;103442;1308;22601;-62
2021/11/13 08:38:41;;;;;;;120.20;46.90;;;;;;;5.74;85.09;100343.91;103262;1313;25503;-62
2021/11/13 08:41:12;;;;;;;97.30;41.50;;;;;;;5.78;85.07;100338.11;103177;1309;24248;-63
2021/11/13 08:43:44;;;;;;;111.60;45.00;;;;;;;5.82;84.96;100342.42;103326;1308;22588;-62
2021/11/13 08:46:14;;;;;;;175.00;56.50;;;;;;;5.85;85.13;100341.95;103526;1313;25354;-62
2021/11/13 08:48:46;;;;;;;134.70;49.40;;;;;;;5.88;84.86;100344.14;103171;1313;22683;-63
2021/11/13 08:51:17;;;;;;;155.40;48.90;;;;;;;5.93;84.87;100344.25;103148;1309;22577;-62
2021/11/13 08:53:53;;;;;;;180.10;53.50;;;;;;;5.98;84.92;100348.52;103192;1315;22687;-63
2021/11/13 08:56:26;;;;;;;102.90;45.40;;;;;;;6.02;84.89;100348.51;103502;1310;25266;-63
2021/11/13 08:58:59;;;;;;;100.60;44.80;;;;;;;6.07;84.88;100345.42;103268;1310;22568;-64
2021/11/13 09:01:33;;;;;;;95.30;41.50;;;;;;;6.12;84.83;100350.88;103484;1309;22566;-62
2021/11/13 09:04:04;;;;;;;98.20;42.70;;;;;;;6.17;84.70;100350.00;103219;1312;25261;-62
2021/11/13 09:06:36;;;;;;;116.40;44.00;;;;;;;6.23;84.66;100350.21;103363;1313;22565;-63
2021/11/13 09:09:07;;;;;;;108.70;44.30;;;;;;;6.30;84.66;100354.81;103195;1308;22691;-61
2021/11/13 09:11:42;;;;;;;144.30;48.10;;;;;;;6.37;84.65;100356.23;103238;1309;24290;-62
2021/11/13 09:14:16;;;;;;;101.90;41.60;;;;;;;6.45;84.59;100355.70;103323;1310;25347;-61
2021/11/13 09:16:48;;;;;;;106.10;46.70;;;;;;;6.53;84.40;100354.56;103416;1312;25281;-63
2021/11/13 09:19:19;;;;;;;125.70;69.30;;;;;;;6.61;84.59;100351.34;103335;1313;25375;-63
2021/11/13 09:21:52;;;;;;;85.60;39.60;;;;;;;6.70;84.45;100352.25;103171;1314;22572;-63
2021/11/13 09:24:24;;;;;;;83.80;39.60;;;;;;;6.77;84.19;100349.13;103330;1309;22575;-63
2021/11/13 09:26:56;;;;;;;91.00;46.30;;;;;;;6.83;83.96;100344.77;103344;1311;25429;-61
2021/11/13 09:29:27;;;;;;;117.80;60.50;;;;;;;6.89;83.77;100341.84;102941;1308;369884;-61
2021/11/13 09:31:58;;;;;;;90.00;39.30;;;;;;;6.97;83.96;100343.24;103190;1309;22617;-70
2021/11/13 09:34:29;;;;;;;79.30;35.70;;;;;;;7.02;83.45;100345.58;103668;1308;24442;-65
2021/11/13 09:37:01;;;;;;;73.90;32.90;;;;;;;7.07;83.37;100346.30;103307;1308;22579;-62
2021/11/13 09:39:32;;;;;;;80.80;35.80;;;;;;;7.11;83.47;100346.23;103288;1308;25290;-63
2021/11/13 09:42:04;;;;;;;77.40;34.20;;;;;;;7.14;83.14;100343.70;103710;1309;22575;-62
2021/11/13 09:44:36;;;;;;;70.20;32.50;;;;;;;7.18;83.02;100338.59;103345;1308;26676;-65
2021/11/13 09:47:09;;;;;;;74.90;34.10;;;;;;;7.21;82.73;100336.80;103380;1309;25285;-63
2021/11/13 09:49:41;;;;;;;72.70;34.70;;;;;;;7.26;82.79;100335.95;103264;1308;24456;-63
2021/11/13 09:52:13;;;;;;;71.70;34.80;;;;;;;7.31;82.80;100338.70;103252;1314;24234;-67
2021/11/13 09:54:45;;;;;;;69.70;31.70;;;;;;;7.37;82.59;100339.13;103813;1308;23521;-63
2021/11/13 09:57:16;;;;;;;78.20;33.10;;;;;;;7.42;82.03;100339.27;103592;1311;23048;-64
2021/11/13 09:59:47;;;;;;;72.10;33.00;;;;;;;7.47;82.00;100340.82;103067;1308;22873;-63
2021/11/13 10:02:18;;;;;;;68.90;31.70;;;;;;;7.51;81.69;100339.85;103093;1313;22766;-69
2021/11/13 10:04:49;;;;;;;67.10;31.30;;;;;;;7.54;81.53;100339.73;103159;1308;22577;-58
2021/11/13 10:07:20;;;;;;;70.90;33.50;;;;;;;7.57;81.46;100342.63;103099;1308;24337;-61
2021/11/13 10:09:52;;;;;;;74.20;32.80;;;;;;;7.59;81.34;100338.29;103311;1313;25359;-61
2021/11/13 10:12:38;;;;;;;73.90;31.10;;;;;;;7.60;80.98;100337.76;103154;1308;23011;-64
2021/11/13 10:15:37;;;;;;;70.30;30.70;;;;;;;7.62;81.16;100334.29;103353;1309;22568;-61
2021/11/13 10:18:13;;;;;;;71.10;32.70;;;;;;;7.63;80.95;100333.77;103244;1308;22572;-62
2021/11/13 10:20:48;;;;;;;60.70;28.80;;;;;;;7.64;80.93;100335.06;103221;1308;23493;-63
2021/11/13 10:23:41;;;;;;;65.10;30.50;;;;;;;7.65;80.55;100331.86;103299;1308;24687;-59
2021/11/13 10:26:16;;;;;;;64.70;30.10;;;;;;;7.66;80.68;100325.93;103203;1313;22589;-61
2021/11/13 10:28:53;;;;;;;64.80;31.20;;;;;;;7.69;80.77;100325.09;103095;1308;22686;-61
2021/11/13 10:31:28;;;;;;;69.30;31.90;;;;;;;7.73;80.62;100327.95;103087;1308;25412;-61
2021/11/13 10:34:02;;;;;;;70.00;34.00;;;;;;;7.78;80.65;100324.36;103152;1313;24320;-61
2021/11/13 10:36:35;;;;;;;67.40;30.60;;;;;;;7.82;80.69;100323.77;103221;1308;24273;-61
2021/11/13 10:39:11;;;;;;;70.10;31.70;;;;;;;7.87;80.59;100315.78;103179;1310;22609;-62
2021/11/13 10:41:48;;;;;;;66.60;30.30;;;;;;;7.92;80.35;100315.50;103099;1310;25384;-60
2021/11/13 10:44:25;;;;;;;63.10;29.80;;;;;;;7.97;80.37;100313.88;103345;1308;25343;-61
2021/11/13 10:46:56;;;;;;;58.70;28.20;;;;;;;8.02;80.26;100316.46;103230;1308;22636;-61
2021/11/13 10:49:27;;;;;;;58.90;27.10;;;;;;;8.06;80.25;100312.14;103415;1308;22586;-60
2021/11/13 10:52:01;;;;;;;57.10;26.30;;;;;;;8.09;79.84;100306.13;103211;1309;22571;-61
2021/11/13 10:54:32;;;;;;;59.60;27.90;;;;;;;8.13;79.73;100300.41;103120;1310;25353;-62
2021/11/13 10:57:06;;;;;;;59.30;29.10;;;;;;;8.17;79.83;100302.30;103407;1308;24213;-61
2021/11/13 10:59:38;;;;;;;63.40;29.80;;;;;;;8.22;79.61;100306.17;103231;1308;22747;-61
2021/11/13 11:02:11;;;;;;;61.60;28.80;;;;;;;8.26;79.55;100305.11;103199;1309;24337;-62
2021/11/13 11:04:43;;;;;;;46.70;23.20;;;;;;;8.32;79.52;100301.39;103160;1313;22586;-62
2021/11/13 11:07:17;;;;;;;55.30;25.90;;;;;;;8.38;79.13;100299.95;103135;1313;22576;-62
2021/11/13 11:09:58;;;;;;;47.50;22.60;;;;;;;8.46;78.89;100299.84;103185;1317;22640;-61
2021/11/13 11:12:34;;;;;;;48.50;22.00;;;;;;;8.52;78.70;100299.55;103383;1308;25830;-63
2021/11/13 11:15:12;;;;;;;50.10;23.50;;;;;;;8.60;78.46;100295.92;103195;1308;24633;-60
2021/11/13 11:17:44;;;;;;;49.10;22.50;;;;;;;8.68;78.48;100293.46;103205;1308;22622;-61
2021/11/13 11:20:18;;;;;;;40.10;18.00;;;;;;;8.77;78.02;100290.60;103203;1309;22612;-62
2021/11/13 11:22:49;;;;;;;40.00;17.10;;;;;;;8.86;77.24;100290.31;103224;1313;24335;-63
2021/11/13 11:25:23;;;;;;;36.80;16.60;;;;;;;8.95;76.75;100289.98;103233;1309;25323;-60